Time;durP1;ratioP1;P1;durP2;ratioP2;P2;SDS_P1;SDS_P2;PMS_P1;PMS_P2;Temp;Humidity;BMP_temperature;BMP_pressure;BME280_temperature;BME280_humidity;BME280_pressure;Samples;Min_cycle;Max_cycle;Signal;HPM_P1;HPM_P2
2022/06/18 00:01:33;;;;;;;5.15;2.15;;;;;;;19.61;58.76;100587.41;5068812;28;20110;-79
2022/06/18 00:04:02;;;;;;;2.60;2.10;;;;;;;19.60;58.90;100579.28;5075641;28;20049;-79
2022/06/18 00:06:31;;;;;;;2.92;2.30;;;;;;;19.60;58.75;100576.47;5073532;28;20393;-79
2022/06/18 00:09:04;;;;;;;2.65;2.20;;;;;;;19.59;58.62;100572.00;5074671;28;20048;-79
2022/06/18 00:14:16;;;;;;;3.50;2.20;;;;;;;19.63;59.75;100562.41;5076158;28;20064;-81
2022/06/18 00:16:45;;;;;;;3.17;2.50;;;;;;;19.63;59.43;100559.59;5071847;28;20048;-79
2022/06/18 00:19:13;;;;;;;2.72;2.08;;;;;;;19.65;59.28;100556.38;5074985;28;20049;-79
2022/06/18 00:21:40;;;;;;;3.03;2.25;;;;;;;19.66;59.17;100550.34;5091100;28;20051;-79
2022/06/18 00:24:15;;;;;;;2.60;2.20;;;;;;;19.68;59.26;100547.16;5090385;28;20087;-79
2022/06/18 00:26:43;;;;;;;2.65;2.20;;;;;;;19.67;59.53;100545.50;5068853;28;20072;-79
2022/06/18 00:29:13;;;;;;;3.05;2.10;;;;;;;19.66;59.75;100546.72;5075060;28;20044;-79
2022/06/18 00:31:41;;;;;;;3.90;2.13;;;;;;;19.66;59.90;100550.34;5074827;28;20048;-79
2022/06/18 00:34:10;;;;;;;3.85;2.10;;;;;;;19.66;60.06;100543.91;5074708;28;20067;-80
2022/06/18 00:36:39;;;;;;;3.60;2.55;;;;;;;19.65;60.29;100548.75;5071096;28;20044;-79
2022/06/18 00:39:09;;;;;;;4.13;3.10;;;;;;;19.66;60.47;100550.34;5074937;28;20481;-79
2022/06/18 00:41:40;;;;;;;4.53;2.75;;;;;;;19.62;60.54;100548.66;5075469;28;20052;-79
2022/06/18 00:44:18;;;;;;;4.28;2.45;;;;;;;19.58;60.75;100547.78;5074606;28;20135;-79
2022/06/18 00:46:53;;;;;;;4.00;2.50;;;;;;;19.57;60.78;100557.41;5073851;28;20052;-78
2022/06/18 00:49:26;;;;;;;2.80;2.20;;;;;;;19.54;60.81;100542.03;5074715;28;20052;-78
2022/06/18 00:51:58;;;;;;;4.22;2.63;;;;;;;19.53;60.83;100542.41;5074803;28;20484;-79
2022/06/18 00:54:29;;;;;;;4.38;2.53;;;;;;;19.51;60.95;100542.81;5088607;28;20051;-79
2022/06/18 00:57:03;;;;;;;2.97;2.47;;;;;;;19.48;60.82;100538.69;5074418;28;20049;-79
2022/06/18 00:59:34;;;;;;;3.92;2.58;;;;;;;19.47;60.55;100539.91;5074289;28;20072;-79
2022/06/18 01:02:03;;;;;;;2.42;2.15;;;;;;;19.46;60.64;100532.63;5074044;28;20059;-79
2022/06/18 01:04:34;;;;;;;4.27;2.40;;;;;;;19.48;59.89;100535.06;5074343;28;20055;-79
2022/06/18 01:07:06;;;;;;;3.65;2.38;;;;;;;19.47;60.51;100536.25;5071191;28;20061;-78
2022/06/18 01:09:36;;;;;;;3.15;2.00;;;;;;;19.48;60.30;100532.22;5073710;28;20416;-78
2022/06/18 01:12:04;;;;;;;3.10;2.13;;;;;;;19.46;60.32;100535.47;5073849;28;20049;-79
2022/06/18 01:14:32;;;;;;;2.38;1.88;;;;;;;19.50;59.88;100534.69;5067263;28;20056;-79
2022/06/18 01:17:02;;;;;;;3.15;2.28;;;;;;;19.48;60.27;100538.69;5073600;28;20052;-79
2022/06/18 01:19:39;;;;;;;4.07;2.42;;;;;;;19.48;60.48;100526.59;5074026;28;20048;-79
2022/06/18 01:22:17;;;;;;;2.65;2.08;;;;;;;19.48;60.67;100527.41;5053550;28;20398;-79
2022/06/18 01:24:45;;;;;;;2.45;2.15;;;;;;;19.51;60.54;100516.53;5061312;28;20488;-80
2022/06/18 01:27:13;;;;;;;4.18;2.42;;;;;;;19.52;60.29;100521.00;5074017;28;20432;-80
2022/06/18 01:29:41;;;;;;;2.97;2.13;;;;;;;19.53;60.63;100512.16;5073414;28;20059;-79
2022/06/18 01:32:12;;;;;;;4.13;2.47;;;;;;;19.57;59.95;100509.38;5073878;28;20048;-79
2022/06/18 01:34:40;;;;;;;2.80;2.30;;;;;;;19.59;59.99;100507.84;5070808;28;20052;-80
2022/06/18 01:37:10;;;;;;;4.95;2.53;;;;;;;19.58;60.21;100503.38;5053043;28;20409;-79
2022/06/18 01:39:41;;;;;;;4.88;2.20;;;;;;;19.60;60.05;100498.16;5053677;28;20099;-79
2022/06/18 01:42:15;;;;;;;3.05;2.42;;;;;;;19.60;60.11;100494.53;5054040;28;20048;-80
2022/06/18 01:44:48;;;;;;;3.85;2.58;;;;;;;19.63;59.75;100493.75;5054040;28;20048;-80
2022/06/18 01:47:23;;;;;;;2.80;2.45;;;;;;;19.62;59.25;100490.13;5058464;28;20064;-80
2022/06/18 01:49:59;;;;;;;2.42;2.10;;;;;;;19.64;59.12;100482.09;5052984;28;20045;-79
2022/06/18 01:52:31;;;;;;;3.88;2.08;;;;;;;19.64;59.26;100481.28;5055945;28;20421;-79
2022/06/18 01:55:03;;;;;;;3.40;2.40;;;;;;;19.64;59.36;100484.09;5071392;28;20516;-80
2022/06/18 01:57:36;;;;;;;3.88;2.40;;;;;;;19.66;59.34;100476.06;5052845;28;20355;-79
2022/06/18 02:00:12;;;;;;;4.28;2.40;;;;;;;19.67;59.20;100480.50;5052543;28;20155;-79
2022/06/18 02:02:40;;;;;;;3.90;2.60;;;;;;;19.67;58.68;100484.19;5052730;28;20053;-79
2022/06/18 02:05:09;;;;;;;5.57;2.55;;;;;;;19.68;59.05;100480.16;5052481;28;20060;-80
2022/06/18 02:07:36;;;;;;;3.30;2.25;;;;;;;19.72;58.65;100482.25;5069837;28;20060;-79
2022/06/18 02:10:09;;;;;;;2.80;2.10;;;;;;;19.72;58.59;100476.59;5072599;28;20055;-79
2022/06/18 02:12:40;;;;;;;2.78;2.05;;;;;;;19.76;58.03;100474.63;5072585;28;20068;-79
2022/06/18 02:15:12;;;;;;;2.70;2.30;;;;;;;19.79;57.99;100466.22;5055868;28;20052;-80
2022/06/18 02:17:41;;;;;;;2.95;2.40;;;;;;;19.81;57.92;100477.97;5052321;28;20049;-79
2022/06/18 02:20:13;;;;;;;2.72;2.03;;;;;;;19.84;57.54;100477.25;5053342;28;20045;-79
2022/06/18 02:22:45;;;;;;;2.25;2.03;;;;;;;19.85;57.42;100478.03;5052880;28;20053;-79
2022/06/18 02:25:14;;;;;;;3.28;2.10;;;;;;;19.86;57.87;100472.03;5067277;28;20507;-79
2022/06/18 02:27:44;;;;;;;3.17;1.90;;;;;;;19.89;57.28;100470.44;5072935;28;20045;-79
2022/06/18 02:30:16;;;;;;;2.30;2.08;;;;;;;19.89;57.38;100467.63;5065443;28;20055;-79
2022/06/18 02:32:53;;;;;;;2.05;1.73;;;;;;;19.90;57.48;100469.22;5072321;28;20052;-79
2022/06/18 02:35:23;;;;;;;2.70;1.88;;;;;;;19.90;57.02;100465.59;5060827;28;20068;-79
2022/06/18 02:37:51;;;;;;;3.78;2.10;;;;;;;19.90;57.38;100451.47;5052036;28;20509;-79
2022/06/18 02:40:21;;;;;;;3.63;2.47;;;;;;;19.86;57.57;100457.88;5052415;28;20392;-79
2022/06/18 02:42:52;;;;;;;4.03;2.13;;;;;;;19.86;57.74;100452.25;5051892;28;20053;-79
2022/06/18 02:45:22;;;;;;;2.53;1.77;;;;;;;19.86;57.44;100455.06;5056331;28;20416;-85
2022/06/18 02:47:52;;;;;;;3.35;1.98;;;;;;;19.85;57.89;100456.25;5053007;28;20049;-86
2022/06/18 02:50:22;;;;;;;2.28;1.90;;;;;;;19.83;58.02;100452.97;5052847;28;20064;-87
2022/06/18 02:52:58;;;;;;;3.28;2.10;;;;;;;19.85;57.33;100456.25;5058991;28;20056;-79
2022/06/18 02:55:29;;;;;;;3.00;2.08;;;;;;;19.84;57.99;100465.09;5069389;28;20057;-80
2022/06/18 02:58:03;;;;;;;3.38;2.20;;;;;;;19.85;57.72;100463.91;5073031;28;20405;-80
2022/06/18 03:00:31;;;;;;;3.15;2.10;;;;;;;19.84;57.81;100459.44;5071681;28;20420;-79
2022/06/18 03:02:59;;;;;;;3.13;2.13;;;;;;;19.88;56.59;100463.16;5070886;28;20055;-80
2022/06/18 03:05:29;;;;;;;2.85;1.70;;;;;;;19.90;56.27;100457.13;5052993;28;20072;-79
2022/06/18 03:07:56;;;;;;;4.05;1.95;;;;;;;19.93;56.01;100462.84;5052360;28;20104;-79
2022/06/18 03:13:13;;;;;;;2.90;2.03;;;;;;;19.94;56.52;100463.66;5058873;28;20409;-80
2022/06/18 03:15:40;;;;;;;3.08;1.90;;;;;;;20.01;56.09;100469.41;5066759;28;20044;-79
2022/06/18 03:18:08;;;;;;;4.00;2.30;;;;;;;20.00;56.93;100465.78;5071960;28;20056;-79
2022/06/18 03:20:55;;;;;;;2.78;1.70;;;;;;;20.01;56.61;100472.22;5072009;28;20480;-79
2022/06/18 03:23:24;;;;;;;3.55;1.92;;;;;;;20.02;56.27;100471.88;5069935;28;20101;-79
2022/06/18 03:25:52;;;;;;;3.25;1.95;;;;;;;20.05;56.43;100475.94;5072005;28;20055;-80
2022/06/18 03:28:22;;;;;;;3.38;2.30;;;;;;;20.01;56.80;100481.56;5072172;28;20056;-79
2022/06/18 03:30:49;;;;;;;3.75;1.80;;;;;;;20.04;56.75;100485.63;5071674;28;20053;-79
2022/06/18 03:33:17;;;;;;;3.22;2.00;;;;;;;20.06;55.96;100483.25;5071885;28;20063;-79
2022/06/18 03:35:47;;;;;;;2.38;1.80;;;;;;;20.13;55.52;100474.88;5070287;28;20380;-80
2022/06/18 03:38:15;;;;;;;;;;;;;;;20.17;55.46;100477.75;5071885;28;20044;-79
2022/06/18 03:40:44;;;;;;;3.33;2.42;;;;;;;20.20;55.76;100480.66;5071393;28;19920;-79
2022/06/18 03:43:12;;;;;;;4.35;2.33;;;;;;;20.30;55.39;100475.53;5071584;28;20060;-79
2022/06/18 03:45:43;;;;;;;2.63;1.60;;;;;;;20.33;55.14;100477.59;5058020;28;20060;-79
2022/06/18 03:48:19;;;;;;;2.70;1.70;;;;;;;20.39;55.09;100465.56;5051140;28;20053;-79
2022/06/18 03:50:49;;;;;;;4.13;2.03;;;;;;;20.46;55.70;100479.00;5051634;28;20052;-79
2022/06/18 03:53:17;;;;;;;2.50;1.90;;;;;;;20.56;53.89;100472.69;5070883;28;20058;-79
2022/06/18 03:55:45;;;;;;;3.30;1.80;;;;;;;20.60;53.62;100467.94;5071120;28;20048;-79
2022/06/18 03:58:13;;;;;;;4.15;1.92;;;;;;;20.68;54.01;100466.84;5071171;28;20408;-79
2022/06/18 04:00:42;;;;;;;5.82;2.35;;;;;;;20.76;53.43;100470.56;5071399;28;20053;-80
2022/06/18 04:03:09;;;;;;;2.40;1.90;;;;;;;20.81;53.90;100466.56;5070949;28;20056;-79
2022/06/18 04:05:40;;;;;;;3.63;2.00;;;;;;;20.85;54.27;100471.09;5066818;28;20048;-79
2022/06/18 04:08:07;;;;;;;4.28;2.10;;;;;;;20.91;54.22;100468.72;5070292;28;20049;-79
2022/06/18 04:10:35;;;;;;;4.80;2.70;;;;;;;20.92;53.71;100478.84;5073053;28;20049;-79
2022/06/18 04:13:02;;;;;;;2.97;2.30;;;;;;;20.98;53.70;100471.66;5074515;28;20067;-79
2022/06/18 04:15:30;;;;;;;2.60;2.00;;;;;;;21.04;53.57;100475.78;5069888;28;20044;-79
2022/06/18 04:17:59;;;;;;;3.88;2.13;;;;;;;21.13;53.76;100478.31;5054335;28;20049;-79
2022/06/18 04:20:29;;;;;;;4.32;2.17;;;;;;;21.17;53.04;100475.53;5055128;28;20049;-79
2022/06/18 04:22:56;;;;;;;3.42;2.25;;;;;;;21.22;53.82;100480.84;5054565;28;20053;-78
2022/06/18 04:25:24;;;;;;;3.03;2.20;;;;;;;21.32;52.69;100476.50;5055616;28;20120;-79
2022/06/18 04:27:54;;;;;;;3.30;2.08;;;;;;;21.39;52.27;100479.41;5073586;28;20492;-79
2022/06/18 04:30:21;;;;;;;3.67;2.05;;;;;;;21.44;53.05;100481.91;5075005;28;20057;-79
2022/06/18 04:32:48;;;;;;;2.60;2.00;;;;;;;21.45;53.47;100475.84;5074545;28;20075;-79
2022/06/18 04:35:17;;;;;;;2.85;1.98;;;;;;;21.53;52.83;100476.75;5074252;28;20476;-79
2022/06/18 04:37:48;;;;;;;4.28;2.20;;;;;;;21.58;52.64;100476.38;5070926;28;20048;-79
2022/06/18 04:40:18;;;;;;;3.50;2.08;;;;;;;21.65;52.94;100476.47;5074914;28;20500;-79
2022/06/18 04:42:46;;;;;;;4.05;2.08;;;;;;;21.76;52.11;100475.75;5074352;28;20528;-79
2022/06/18 04:45:14;;;;;;;3.83;2.00;;;;;;;21.83;52.33;100479.47;5074567;28;20052;-79
2022/06/18 04:47:41;;;;;;;3.63;2.08;;;;;;;21.91;51.51;100476.69;5070194;28;20067;-79
2022/06/18 04:50:18;;;;;;;2.60;2.10;;;;;;;22.00;51.96;100475.16;5046890;28;20056;-79
2022/06/18 04:52:46;;;;;;;3.92;2.20;;;;;;;22.05;51.79;100469.13;5064845;28;20048;-79
2022/06/18 04:55:13;;;;;;;2.63;2.20;;;;;;;22.09;52.24;100472.81;5094511;28;20107;-80
2022/06/18 04:57:40;;;;;;;3.72;2.05;;;;;;;22.19;51.38;100474.06;5075573;28;20064;-79
2022/06/18 05:00:09;;;;;;;4.97;2.25;;;;;;;22.29;50.79;100472.56;5053660;28;20064;-79
2022/06/18 05:02:39;;;;;;;3.20;1.98;;;;;;;22.36;51.06;100480.31;5054173;28;20053;-79
2022/06/18 05:05:12;;;;;;;4.18;2.25;;;;;;;22.45;50.82;100475.13;5054275;28;20145;-79
2022/06/18 05:07:41;;;;;;;4.13;2.25;;;;;;;22.57;50.52;100471.91;5059768;28;20507;-80
2022/06/18 05:10:10;;;;;;;2.92;2.13;;;;;;;22.65;50.18;100475.63;5054511;28;20052;-80
2022/06/18 05:12:38;;;;;;;3.47;2.05;;;;;;;22.75;50.13;100471.22;5054467;28;20052;-79
2022/06/18 05:15:06;;;;;;;3.25;2.10;;;;;;;22.79;50.06;100470.03;5053676;28;20059;-80
2022/06/18 05:17:36;;;;;;;4.00;2.08;;;;;;;22.86;50.54;100469.25;5055971;28;20056;-79
2022/06/18 05:20:04;;;;;;;2.75;2.00;;;;;;;23.00;49.58;100474.19;5070350;28;20155;-80
2022/06/18 05:22:32;;;;;;;4.07;2.45;;;;;;;23.08;49.22;100471.00;5073583;28;20056;-81
2022/06/18 05:25:01;;;;;;;2.95;2.03;;;;;;;23.11;49.34;100472.22;5072124;28;20045;-81
2022/06/18 05:27:33;;;;;;;4.20;2.22;;;;;;;23.21;49.22;100464.94;5073798;28;20055;-80
2022/06/18 05:30:01;;;;;;;3.40;2.20;;;;;;;23.30;48.83;100465.38;5069636;28;20055;-81
2022/06/18 05:32:28;;;;;;;3.47;2.23;;;;;;;23.33;48.79;100461.75;5073339;28;20064;-81
2022/06/18 05:34:56;;;;;;;3.42;2.00;;;;;;;23.42;48.70;100464.19;5073599;28;20386;-79
2022/06/18 05:37:26;;;;;;;3.28;2.22;;;;;;;23.54;48.78;100458.13;5074030;28;20404;-79
2022/06/18 05:39:53;;;;;;;3.53;2.10;;;;;;;23.69;48.33;100462.59;5069186;28;20049;-80
2022/06/18 05:42:22;;;;;;;3.92;1.83;;;;;;;23.78;48.56;100455.75;5073717;28;20056;-80
2022/06/18 05:44:50;;;;;;;3.50;2.20;;;;;;;23.89;48.54;100456.53;5074056;28;20056;-80
2022/06/18 05:47:22;;;;;;;3.47;1.90;;;;;;;24.03;48.47;100455.75;5073710;28;20511;-80
2022/06/18 05:49:50;;;;;;;6.45;2.50;;;;;;;24.14;48.50;100455.72;5071910;28;20048;-80
2022/06/18 05:52:18;;;;;;;5.13;2.53;;;;;;;24.22;48.50;100454.50;5073191;28;20642;-80
2022/06/18 05:54:46;;;;;;;3.55;2.20;;;;;;;24.32;48.38;100447.97;5090321;28;20075;-80
2022/06/18 05:57:14;;;;;;;4.95;2.13;;;;;;;24.38;48.52;100448.34;5093265;28;20055;-81
2022/06/18 05:59:42;;;;;;;3.55;2.08;;;;;;;24.54;48.25;100445.09;5075910;28;20493;-81
2022/06/18 06:02:12;;;;;;;2.13;1.80;;;;;;;24.63;48.04;100434.91;5053320;28;20482;-80
2022/06/18 06:04:42;;;;;;;2.97;2.22;;;;;;;24.76;47.83;100438.13;5052909;28;20049;-80
2022/06/18 06:07:10;;;;;;;3.08;2.00;;;;;;;24.86;47.78;100434.41;5065675;28;20489;-81
2022/06/18 06:12:22;;;;;;;2.75;2.20;;;;;;;25.05;47.92;100438.81;5078551;28;20404;-81
2022/06/18 06:14:51;;;;;;;4.07;2.58;;;;;;;25.21;48.34;100441.19;5073191;28;20049;-80
2022/06/18 06:17:22;;;;;;;3.47;2.30;;;;;;;25.33;48.54;100436.25;5070487;28;20519;-81
2022/06/18 06:19:50;;;;;;;3.88;2.05;;;;;;;25.49;47.67;100443.06;5066931;28;20040;-81
2022/06/18 06:22:18;;;;;;;2.78;2.00;;;;;;;25.64;47.21;100437.22;5072615;28;20381;-81
2022/06/18 06:24:45;;;;;;;4.57;2.47;;;;;;;25.75;47.84;100440.03;5072706;28;20056;-81
2022/06/18 06:27:13;;;;;;;5.45;2.38;;;;;;;25.84;45.92;100444.00;5071968;28;20520;-81
2022/06/18 06:29:40;;;;;;;3.35;2.00;;;;;;;25.99;44.87;100436.16;5054259;28;20049;-81
2022/06/18 06:32:09;;;;;;;3.53;2.13;;;;;;;26.08;44.59;100442.22;5053047;28;20049;-80
2022/06/18 06:34:37;;;;;;;4.70;2.20;;;;;;;26.28;44.07;100447.31;5052173;28;20056;-80
2022/06/18 06:37:04;;;;;;;3.30;1.80;;;;;;;26.43;43.33;100436.56;5052226;28;20056;-81
2022/06/18 06:39:31;;;;;;;3.97;2.00;;;;;;;26.56;42.51;100434.75;5065924;28;20040;-79
2022/06/18 06:41:59;;;;;;;4.50;2.20;;;;;;;26.62;42.54;100438.00;5072600;28;20056;-79
2022/06/18 06:44:26;;;;;;;3.90;2.47;;;;;;;26.71;42.29;100441.97;5072843;28;20059;-79
2022/06/18 06:46:54;;;;;;;3.92;2.25;;;;;;;26.83;41.59;100437.75;5072431;28;20052;-79
2022/06/18 06:49:23;;;;;;;4.77;2.40;;;;;;;26.89;41.10;100440.94;5070493;28;20056;-79
2022/06/18 06:51:50;;;;;;;4.05;1.98;;;;;;;26.95;41.41;100441.28;5072572;28;20135;-79
2022/06/18 06:54:18;;;;;;;4.10;2.22;;;;;;;27.06;41.13;100445.59;5090820;28;20048;-79
2022/06/18 06:59:30;;;;;;;4.72;2.53;;;;;;;27.26;39.83;100445.00;5078185;28;20515;-79
2022/06/18 07:01:57;;;;;;;5.18;2.10;;;;;;;27.42;40.41;100441.47;5066286;28;20052;-79
2022/06/18 07:04:26;;;;;;;5.47;2.35;;;;;;;27.51;39.99;100451.16;5053154;28;20060;-80
2022/06/18 07:06:56;;;;;;;3.40;2.30;;;;;;;27.57;39.60;100450.66;5052745;28;20055;-78
2022/06/18 07:09:23;;;;;;;4.80;2.50;;;;;;;27.62;38.99;100453.84;5068982;28;20048;-79
2022/06/18 07:11:50;;;;;;;4.97;2.38;;;;;;;27.50;38.97;100452.38;5060446;28;21016;-78
2022/06/18 07:14:17;;;;;;;3.72;2.30;;;;;;;27.78;39.30;100453.16;5059583;28;20055;-79
2022/06/18 07:16:49;;;;;;;5.50;2.45;;;;;;;27.87;39.00;100436.28;5065594;28;20040;-79
2022/06/18 07:19:18;;;;;;;4.68;2.50;;;;;;;28.08;38.83;100446.56;5053809;28;20048;-79
2022/06/18 07:21:50;;;;;;;5.27;2.30;;;;;;;28.24;38.54;100437.25;5072088;28;20067;-78
2022/06/18 07:24:17;;;;;;;5.03;2.60;;;;;;;28.38;37.84;100441.13;5072283;28;20481;-78
2022/06/18 07:26:45;;;;;;;5.18;2.60;;;;;;;28.37;37.61;100446.06;5070340;28;20071;-80
2022/06/18 07:29:13;;;;;;;6.85;2.13;;;;;;;28.34;37.78;100430.53;5071875;28;20052;-79
2022/06/18 07:31:41;;;;;;;4.15;2.50;;;;;;;28.46;37.90;100437.69;5072353;28;20056;-79
2022/06/18 07:34:08;;;;;;;3.70;2.20;;;;;;;28.59;37.67;100429.28;5067071;28;20048;-80
2022/06/18 07:36:35;;;;;;;4.53;2.78;;;;;;;28.79;36.70;100425.59;5076474;28;20408;-81
2022/06/18 07:39:05;;;;;;;4.25;2.35;;;;;;;28.94;37.20;100424.06;5061603;28;20052;-80
2022/06/18 07:41:35;;;;;;;2.97;2.40;;;;;;;29.20;37.52;100424.34;5071595;28;20059;-80
2022/06/18 07:44:04;;;;;;;4.72;2.85;;;;;;;29.32;35.99;100420.78;5071547;28;20053;-79
2022/06/18 07:46:31;;;;;;;4.63;2.22;;;;;;;29.43;35.53;100412.72;5073675;28;20461;-80
2022/06/18 07:48:59;;;;;;;4.25;2.55;;;;;;;29.33;35.58;100419.50;5072943;28;20048;-79
2022/06/18 07:51:27;;;;;;;5.85;2.40;;;;;;;29.45;35.97;100413.06;5073565;28;20067;-80
2022/06/18 07:53:55;;;;;;;3.88;2.30;;;;;;;29.65;35.54;100407.28;5089039;28;20412;-80
2022/06/18 07:56:23;;;;;;;7.07;2.50;;;;;;;29.78;34.82;100403.69;5077680;28;20041;-80
2022/06/18 07:58:51;;;;;;;;;;;;;;;30.07;34.51;100403.75;5075674;28;20053;-80
2022/06/18 08:01:18;;;;;;;6.28;3.10;;;;;;;30.58;33.54;100401.16;5068518;28;20372;-80
2022/06/18 08:03:45;;;;;;;5.18;2.70;;;;;;;31.21;32.66;100393.16;5071525;28;20052;-79
2022/06/18 08:06:13;;;;;;;3.78;2.40;;;;;;;31.90;32.52;100393.34;5069321;28;20060;-80
2022/06/18 08:08:40;;;;;;;5.50;2.42;;;;;;;32.45;31.18;100389.38;5072526;28;20075;-80
2022/06/18 08:11:11;;;;;;;3.72;2.47;;;;;;;32.83;30.39;100377.66;5074123;28;20059;-79
2022/06/18 08:13:40;;;;;;;5.35;3.08;;;;;;;33.53;29.60;100380.22;5073403;28;20049;-79
2022/06/18 08:16:09;;;;;;;5.63;2.80;;;;;;;33.68;28.75;100377.56;5074915;28;20048;-82
2022/06/18 08:18:37;;;;;;;5.97;2.90;;;;;;;34.33;28.72;100364.03;5073341;28;20048;-79
2022/06/18 08:21:08;;;;;;;6.60;2.60;;;;;;;34.86;27.66;100362.84;5074045;28;20056;-79
2022/06/18 08:23:38;;;;;;;6.85;2.97;;;;;;;35.58;26.67;100371.75;5068024;28;20060;-80
2022/06/18 08:26:15;;;;;;;5.30;2.80;;;;;;;36.35;26.79;100356.59;5074734;28;20052;-82
2022/06/18 08:28:52;;;;;;;5.68;2.83;;;;;;;37.30;24.37;100353.81;5055707;28;20044;-80
2022/06/18 08:31:19;;;;;;;4.45;2.47;;;;;;;37.98;24.32;100355.59;5075427;28;20496;-80
2022/06/18 08:33:47;;;;;;;4.57;2.00;;;;;;;38.58;23.25;100344.44;5072847;28;20048;-80
2022/06/18 08:36:17;;;;;;;6.28;2.95;;;;;;;39.27;22.35;100345.81;5073977;28;20478;-80
2022/06/18 08:38:47;;;;;;;5.13;2.60;;;;;;;39.96;22.06;100348.66;5071925;28;20056;-81
2022/06/18 08:41:45;;;;;;;5.78;2.45;;;;;;;40.86;21.59;100345.19;5065218;28;20496;-78
2022/06/18 08:44:36;;;;;;;4.00;2.20;;;;;;;41.74;20.03;100339.78;5065889;28;20425;-79
2022/06/18 08:47:14;;;;;;;4.90;2.70;;;;;;;42.53;18.96;100344.53;5074738;28;20044;-79
2022/06/18 08:50:02;;;;;;;8.02;2.90;;;;;;;42.88;18.04;100340.78;5073074;28;20464;-81
2022/06/18 08:52:44;;;;;;;6.93;2.90;;;;;;;43.33;17.49;100345.50;5072558;28;20421;-82
2022/06/18 08:55:17;;;;;;;6.10;2.60;;;;;;;43.14;17.70;100337.38;5067360;28;20061;-82
2022/06/18 08:57:54;;;;;;;4.00;2.53;;;;;;;43.48;17.93;100339.22;5076593;28;20055;-82
2022/06/18 09:00:28;;;;;;;14.68;2.75;;;;;;;43.71;17.10;100342.72;5073589;28;20059;-81
2022/06/18 09:03:00;;;;;;;6.60;2.92;;;;;;;43.95;16.71;100336.81;5073551;28;20114;-82
2022/06/18 09:05:42;;;;;;;7.40;2.90;;;;;;;44.11;17.02;100335.00;5070818;28;20071;-81
2022/06/18 09:08:25;;;;;;;6.25;2.72;;;;;;;43.87;16.15;100338.78;5072010;28;20052;-80
2022/06/18 09:11:11;;;;;;;8.77;3.10;;;;;;;43.88;16.30;100342.50;5060771;28;20048;-79
2022/06/18 09:13:45;;;;;;;5.70;2.53;;;;;;;43.18;16.39;100343.75;5073433;28;20499;-79
2022/06/18 09:16:19;;;;;;;8.50;2.78;;;;;;;43.14;16.30;100340.31;5067537;28;20055;-80
2022/06/18 09:18:51;;;;;;;8.13;2.92;;;;;;;43.65;16.45;100339.84;5073593;28;20056;-81
2022/06/18 09:21:25;;;;;;;8.48;2.80;;;;;;;43.88;16.18;100333.69;5073411;28;20400;-81
2022/06/18 09:23:56;;;;;;;6.20;2.80;;;;;;;44.31;15.53;100326.97;5072659;28;20408;-81
2022/06/18 09:26:29;;;;;;;5.22;2.47;;;;;;;44.73;15.41;100328.25;5071112;28;20056;-80
2022/06/18 09:29:03;;;;;;;5.63;2.40;;;;;;;44.96;15.60;100331.63;5072497;28;20512;-78
2022/06/18 09:31:36;;;;;;;6.93;2.83;;;;;;;44.50;15.15;100327.81;5066941;28;20049;-77
2022/06/18 09:34:11;;;;;;;5.32;2.50;;;;;;;44.05;15.53;100334.28;5053655;28;20510;-81
2022/06/18 09:36:42;;;;;;;4.95;2.70;;;;;;;44.38;15.86;100333.03;5065453;28;20504;-79
2022/06/18 09:39:14;;;;;;;8.57;2.90;;;;;;;44.64;15.69;100325.69;5072691;28;20052;-81
2022/06/18 09:41:49;;;;;;;5.97;2.60;;;;;;;44.85;15.56;100328.84;5071875;28;20048;-82
2022/06/18 09:44:22;;;;;;;5.88;2.78;;;;;;;45.00;15.69;100327.53;5074524;28;20056;-82
2022/06/18 09:46:57;;;;;;;7.80;2.58;;;;;;;45.09;14.95;100333.78;5069694;28;20512;-81
2022/06/18 09:49:24;;;;;;;5.82;2.55;;;;;;;45.63;14.40;100325.06;5077504;28;20067;-82
2022/06/18 09:51:55;;;;;;;6.38;2.85;;;;;;;46.02;14.24;100329.38;5071713;28;20063;-79
2022/06/18 09:54:29;;;;;;;7.93;2.95;;;;;;;45.87;14.46;100324.03;5070751;28;20064;-79
2022/06/18 09:57:00;;;;;;;6.85;2.92;;;;;;;45.68;14.51;100327.91;5065286;28;20049;-78
2022/06/18 09:59:31;;;;;;;4.72;2.70;;;;;;;45.71;14.43;100320.88;5071527;28;20045;-79
2022/06/18 10:02:01;;;;;;;6.13;2.78;;;;;;;45.10;14.77;100328.69;5070599;28;20044;-78
2022/06/18 10:07:19;;;;;;;7.13;2.70;;;;;;;45.89;14.48;100330.16;5030114;28;20081;-79
2022/06/18 10:09:50;;;;;;;7.30;3.08;;;;;;;46.78;13.56;100326.53;5071903;28;20072;-79
2022/06/18 10:12:21;;;;;;;10.10;3.05;;;;;;;47.34;13.33;100330.19;5069935;28;20068;-79
2022/06/18 10:14:53;;;;;;;7.53;2.90;;;;;;;47.86;13.53;100327.38;5072312;28;20053;-80
2022/06/18 10:17:37;;;;;;;6.13;2.95;;;;;;;48.47;13.04;100327.66;5065398;28;20028;-82
2022/06/18 10:20:13;;;;;;;6.07;2.92;;;;;;;48.92;12.32;100319.47;5068935;28;20044;-81
2022/06/18 10:22:49;;;;;;;4.80;3.03;;;;;;;48.78;12.57;100322.59;5072893;28;20052;-80
2022/06/18 10:25:30;;;;;;;7.65;2.97;;;;;;;49.09;12.31;100313.78;5070725;28;20048;-80
2022/06/18 10:28:05;;;;;;;8.55;3.13;;;;;;;49.24;13.22;100312.97;5064278;28;20049;-81
2022/06/18 10:30:38;;;;;;;7.50;3.30;;;;;;;49.68;12.10;100309.75;5066216;28;20048;-80
2022/06/18 10:33:20;;;;;;;8.07;2.78;;;;;;;49.91;11.55;100312.66;5071120;28;20053;-81
2022/06/18 10:35:55;;;;;;;9.90;2.97;;;;;;;50.01;12.22;100312.03;5071056;28;20044;-81
2022/06/18 10:38:45;;;;;;;7.03;3.28;;;;;;;49.85;11.97;100318.00;5067139;28;20055;-81
2022/06/18 10:41:18;;;;;;;8.77;2.97;;;;;;;49.91;12.42;100312.66;5062365;28;20049;-82
2022/06/18 10:44:04;;;;;;;6.10;2.88;;;;;;;50.12;12.16;100317.53;5069319;28;20048;-79
2022/06/18 10:46:32;;;;;;;6.33;3.60;;;;;;;50.49;11.95;100309.84;5069084;28;20052;-79
2022/06/18 10:49:04;;;;;;;9.23;3.22;;;;;;;50.11;11.10;100301.13;5071526;28;20059;-79
2022/06/18 10:51:41;;;;;;;6.20;2.85;;;;;;;50.11;11.73;100313.78;5062534;28;20048;-80
2022/06/18 10:54:10;;;;;;;9.52;3.00;;;;;;;50.07;11.79;100303.75;5068154;28;20060;-79
2022/06/18 10:56:51;;;;;;;5.80;2.92;;;;;;;49.84;12.19;100307.56;5069552;28;20052;-78
2022/06/18 10:59:29;;;;;;;6.60;3.15;;;;;;;49.53;12.38;100306.84;5068359;28;20428;-78
2022/06/18 11:02:01;;;;;;;6.13;3.17;;;;;;;49.90;12.47;100296.28;5065748;28;20063;-78
2022/06/18 11:04:33;;;;;;;7.35;3.00;;;;;;;50.22;11.37;100297.72;5069628;28;20508;-79
2022/06/18 11:07:03;;;;;;;7.65;3.45;;;;;;;50.47;11.27;100288.13;5072657;28;20052;-80
2022/06/18 11:09:33;;;;;;;7.28;3.40;;;;;;;50.87;10.46;100305.81;5072059;28;20059;-79
2022/06/18 11:12:02;;;;;;;8.73;3.47;;;;;;;50.73;11.12;100296.41;5067400;28;20489;-79
2022/06/18 11:14:39;;;;;;;7.32;3.10;;;;;;;50.94;11.36;100293.09;5072306;28;20428;-80
2022/06/18 11:17:20;;;;;;;9.00;3.83;;;;;;;50.98;11.21;100289.72;5067073;28;20057;-80
2022/06/18 11:19:49;;;;;;;7.45;2.95;;;;;;;51.58;10.45;100288.94;5073442;28;20070;-81
2022/06/18 11:22:22;;;;;;;7.38;3.20;;;;;;;51.59;10.03;100285.38;5075079;28;20060;-80
2022/06/18 11:24:55;;;;;;;6.38;3.13;;;;;;;51.10;10.94;100296.75;5072184;28;20049;-80
2022/06/18 11:27:23;;;;;;;10.35;3.65;;;;;;;51.22;10.72;100279.19;5069573;28;20045;-81
2022/06/18 11:29:53;;;;;;;11.05;3.47;;;;;;;51.10;10.94;100278.13;5069447;28;20049;-79
2022/06/18 11:32:24;;;;;;;7.93;3.83;;;;;;;50.40;11.36;100274.09;5075058;28;20056;-79
2022/06/18 11:35:01;;;;;;;7.03;3.35;;;;;;;51.05;11.00;100282.13;5072084;28;20048;-79
2022/06/18 11:37:31;;;;;;;5.90;2.85;;;;;;;50.85;11.20;100272.25;5073172;28;20044;-80
2022/06/18 11:40:03;;;;;;;5.95;3.08;;;;;;;51.16;11.76;100269.78;5055739;28;20056;-79
2022/06/18 11:42:37;;;;;;;7.60;3.42;;;;;;;51.12;11.33;100273.19;5055962;28;20045;-79
2022/06/18 11:45:21;;;;;;;7.63;3.25;;;;;;;51.52;11.55;100275.16;5055456;28;20045;-80
2022/06/18 11:47:52;;;;;;;10.90;3.40;;;;;;;51.71;10.75;100264.84;5057091;28;20056;-79
2022/06/18 11:50:31;;;;;;;6.97;3.08;;;;;;;51.88;11.17;100267.81;5072937;28;20508;-79
2022/06/18 11:53:06;;;;;;;9.63;4.15;;;;;;;51.43;10.65;100263.94;5082651;28;20047;-79
2022/06/18 11:55:37;;;;;;;9.10;3.55;;;;;;;50.69;11.03;100272.31;5096080;28;20052;-79
2022/06/18 11:58:13;;;;;;;8.70;3.60;;;;;;;50.25;10.93;100263.13;5088603;28;20056;-80